sensor_id;sensor_type;location;lat;lon;timestamp;P1;durP1;ratioP1;P2;durP2;ratioP2
63536;SDS011;49686;51.880;5.632;2023-06-14T00:00:30;5.20;;;2.65;;
63536;SDS011;49686;51.880;5.632;2023-06-14T00:02:57;4.85;;;2.58;;
63536;SDS011;49686;51.880;5.632;2023-06-14T00:05:25;4.82;;;2.80;;
63536;SDS011;49686;51.880;5.632;2023-06-14T00:07:52;3.35;;;2.60;;
63536;SDS011;49686;51.880;5.632;2023-06-14T00:10:19;5.57;;;2.78;;
63536;SDS011;49686;51.880;5.632;2023-06-14T00:12:46;5.65;;;2.90;;
63536;SDS011;49686;51.880;5.632;2023-06-14T00:15:13;4.47;;;3.30;;
63536;SDS011;49686;51.880;5.632;2023-06-14T00:17:39;6.18;;;2.90;;
63536;SDS011;49686;51.880;5.632;2023-06-14T00:20:07;6.05;;;3.47;;
63536;SDS011;49686;51.880;5.632;2023-06-14T00:22:35;4.32;;;2.80;;
63536;SDS011;49686;51.880;5.632;2023-06-14T00:25:02;9.63;;;2.58;;
63536;SDS011;49686;51.880;5.632;2023-06-14T00:27:44;4.18;;;2.63;;
63536;SDS011;49686;51.880;5.632;2023-06-14T00:30:12;6.68;;;2.80;;
63536;SDS011;49686;51.880;5.632;2023-06-14T00:32:39;6.05;;;3.20;;
63536;SDS011;49686;51.880;5.632;2023-06-14T00:35:07;6.80;;;3.13;;
63536;SDS011;49686;51.880;5.632;2023-06-14T00:37:33;4.25;;;2.83;;
63536;SDS011;49686;51.880;5.632;2023-06-14T00:40:02;7.55;;;2.67;;
63536;SDS011;49686;51.880;5.632;2023-06-14T00:42:29;5.68;;;3.03;;
63536;SDS011;49686;51.880;5.632;2023-06-14T00:44:57;6.93;;;2.95;;
63536;SDS011;49686;51.880;5.632;2023-06-14T00:47:24;7.50;;;3.50;;
63536;SDS011;49686;51.880;5.632;2023-06-14T00:49:50;7.78;;;3.22;;
63536;SDS011;49686;51.880;5.632;2023-06-14T00:52:18;5.95;;;3.13;;
63536;SDS011;49686;51.880;5.632;2023-06-14T00:54:47;6.95;;;2.88;;
63536;SDS011;49686;51.880;5.632;2023-06-14T00:57:14;5.82;;;2.70;;
63536;SDS011;49686;51.880;5.632;2023-06-14T00:59:41;5.75;;;2.78;;
63536;SDS011;49686;51.880;5.632;2023-06-14T01:04:37;6.05;;;2.90;;
63536;SDS011;49686;51.880;5.632;2023-06-14T01:07:07;3.65;;;2.53;;
63536;SDS011;49686;51.880;5.632;2023-06-14T01:09:43;5.22;;;2.75;;
63536;SDS011;49686;51.880;5.632;2023-06-14T01:12:31;4.03;;;2.78;;
63536;SDS011;49686;51.880;5.632;2023-06-14T01:15:05;5.00;;;2.90;;
63536;SDS011;49686;51.880;5.632;2023-06-14T01:17:33;4.80;;;2.75;;
63536;SDS011;49686;51.880;5.632;2023-06-14T01:20:01;9.00;;;3.50;;
63536;SDS011;49686;51.880;5.632;2023-06-14T01:22:29;5.95;;;3.05;;
63536;SDS011;49686;51.880;5.632;2023-06-14T01:24:58;4.38;;;3.08;;
63536;SDS011;49686;51.880;5.632;2023-06-14T01:27:25;6.45;;;2.67;;
63536;SDS011;49686;51.880;5.632;2023-06-14T01:29:52;5.95;;;2.67;;
63536;SDS011;49686;51.880;5.632;2023-06-14T01:32:20;5.47;;;2.70;;
63536;SDS011;49686;51.880;5.632;2023-06-14T01:34:47;5.93;;;2.75;;
63536;SDS011;49686;51.880;5.632;2023-06-14T01:37:14;6.88;;;2.78;;
63536;SDS011;49686;51.880;5.632;2023-06-14T01:39:43;6.15;;;2.92;;
63536;SDS011;49686;51.880;5.632;2023-06-14T01:42:12;5.70;;;2.53;;
63536;SDS011;49686;51.880;5.632;2023-06-14T01:44:40;7.63;;;2.90;;
63536;SDS011;49686;51.880;5.632;2023-06-14T01:47:09;5.45;;;3.42;;
63536;SDS011;49686;51.880;5.632;2023-06-14T01:49:36;6.40;;;2.88;;
63536;SDS011;49686;51.880;5.632;2023-06-14T01:52:04;4.22;;;2.80;;
63536;SDS011;49686;51.880;5.632;2023-06-14T01:54:31;5.80;;;3.10;;
63536;SDS011;49686;51.880;5.632;2023-06-14T01:56:58;4.07;;;2.70;;
63536;SDS011;49686;51.880;5.632;2023-06-14T01:59:26;5.45;;;3.50;;
63536;SDS011;49686;51.880;5.632;2023-06-14T02:01:53;4.38;;;3.28;;
63536;SDS011;49686;51.880;5.632;2023-06-14T02:04:20;5.32;;;2.75;;
63536;SDS011;49686;51.880;5.632;2023-06-14T02:06:47;8.38;;;2.60;;
63536;SDS011;49686;51.880;5.632;2023-06-14T02:09:14;4.35;;;2.67;;
63536;SDS011;49686;51.880;5.632;2023-06-14T02:11:40;10.38;;;2.85;;
63536;SDS011;49686;51.880;5.632;2023-06-14T02:14:07;6.32;;;3.70;;
63536;SDS011;49686;51.880;5.632;2023-06-14T02:16:35;5.97;;;3.38;;
63536;SDS011;49686;51.880;5.632;2023-06-14T02:19:02;4.05;;;3.10;;
63536;SDS011;49686;51.880;5.632;2023-06-14T02:21:29;7.40;;;2.60;;
63536;SDS011;49686;51.880;5.632;2023-06-14T02:23:56;4.53;;;3.42;;
63536;SDS011;49686;51.880;5.632;2023-06-14T02:26:23;6.10;;;2.55;;
63536;SDS011;49686;51.880;5.632;2023-06-14T02:28:50;4.47;;;2.60;;
63536;SDS011;49686;51.880;5.632;2023-06-14T02:31:16;8.00;;;3.10;;
63536;SDS011;49686;51.880;5.632;2023-06-14T02:33:45;4.60;;;2.80;;
63536;SDS011;49686;51.880;5.632;2023-06-14T02:36:11;4.30;;;2.67;;
63536;SDS011;49686;51.880;5.632;2023-06-14T02:38:38;5.78;;;2.53;;
63536;SDS011;49686;51.880;5.632;2023-06-14T02:41:05;9.10;;;2.75;;
63536;SDS011;49686;51.880;5.632;2023-06-14T02:43:32;4.75;;;2.60;;
63536;SDS011;49686;51.880;5.632;2023-06-14T02:45:59;5.30;;;2.63;;
63536;SDS011;49686;51.880;5.632;2023-06-14T02:48:25;4.75;;;2.60;;
63536;SDS011;49686;51.880;5.632;2023-06-14T02:50:55;5.77;;;2.90;;
63536;SDS011;49686;51.880;5.632;2023-06-14T02:53:22;4.85;;;2.88;;
63536;SDS011;49686;51.880;5.632;2023-06-14T02:55:48;5.93;;;2.83;;
63536;SDS011;49686;51.880;5.632;2023-06-14T02:58:15;8.35;;;2.97;;
63536;SDS011;49686;51.880;5.632;2023-06-14T03:00:42;11.13;;;2.70;;
63536;SDS011;49686;51.880;5.632;2023-06-14T03:03:09;4.65;;;2.83;;
63536;SDS011;49686;51.880;5.632;2023-06-14T03:05:36;5.25;;;2.80;;
63536;SDS011;49686;51.880;5.632;2023-06-14T03:08:04;6.90;;;2.60;;
63536;SDS011;49686;51.880;5.632;2023-06-14T03:10:31;7.97;;;3.10;;
63536;SDS011;49686;51.880;5.632;2023-06-14T03:12:58;7.20;;;2.70;;
63536;SDS011;49686;51.880;5.632;2023-06-14T03:15:25;5.95;;;3.20;;
63536;SDS011;49686;51.880;5.632;2023-06-14T03:17:51;6.97;;;2.97;;
63536;SDS011;49686;51.880;5.632;2023-06-14T03:20:18;7.20;;;2.85;;
63536;SDS011;49686;51.880;5.632;2023-06-14T03:22:45;6.18;;;3.05;;
63536;SDS011;49686;51.880;5.632;2023-06-14T03:25:14;5.43;;;2.78;;
63536;SDS011;49686;51.880;5.632;2023-06-14T03:27:40;7.60;;;3.03;;
63536;SDS011;49686;51.880;5.632;2023-06-14T03:30:08;4.47;;;3.08;;
63536;SDS011;49686;51.880;5.632;2023-06-14T03:32:35;8.77;;;2.78;;
63536;SDS011;49686;51.880;5.632;2023-06-14T03:35:02;5.90;;;3.00;;
63536;SDS011;49686;51.880;5.632;2023-06-14T03:37:29;6.60;;;3.15;;
63536;SDS011;49686;51.880;5.632;2023-06-14T03:39:56;10.20;;;3.25;;
63536;SDS011;49686;51.880;5.632;2023-06-14T03:42:24;5.35;;;2.78;;
63536;SDS011;49686;51.880;5.632;2023-06-14T03:44:51;4.55;;;2.70;;
63536;SDS011;49686;51.880;5.632;2023-06-14T03:47:18;7.05;;;3.25;;
63536;SDS011;49686;51.880;5.632;2023-06-14T03:49:45;7.35;;;2.78;;
63536;SDS011;49686;51.880;5.632;2023-06-14T03:52:11;4.47;;;2.85;;
63536;SDS011;49686;51.880;5.632;2023-06-14T03:54:38;8.63;;;3.28;;
63536;SDS011;49686;51.880;5.632;2023-06-14T03:57:08;4.95;;;2.95;;
63536;SDS011;49686;51.880;5.632;2023-06-14T03:59:36;4.80;;;3.08;;
63536;SDS011;49686;51.880;5.632;2023-06-14T04:02:03;6.38;;;3.08;;
63536;SDS011;49686;51.880;5.632;2023-06-14T04:04:30;6.82;;;3.10;;
63536;SDS011;49686;51.880;5.632;2023-06-14T04:06:57;7.45;;;2.70;;
63536;SDS011;49686;51.880;5.632;2023-06-14T04:09:24;6.28;;;2.80;;
63536;SDS011;49686;51.880;5.632;2023-06-14T04:11:51;6.95;;;3.00;;
63536;SDS011;49686;51.880;5.632;2023-06-14T04:14:18;6.47;;;3.30;;
63536;SDS011;49686;51.880;5.632;2023-06-14T04:16:46;5.07;;;3.33;;
63536;SDS011;49686;51.880;5.632;2023-06-14T04:19:14;4.43;;;2.70;;
63536;SDS011;49686;51.880;5.632;2023-06-14T04:21:41;5.10;;;2.80;;
63536;SDS011;49686;51.880;5.632;2023-06-14T04:24:08;9.45;;;3.08;;
63536;SDS011;49686;51.880;5.632;2023-06-14T04:26:35;6.18;;;2.50;;
63536;SDS011;49686;51.880;5.632;2023-06-14T04:29:02;4.40;;;2.63;;
63536;SDS011;49686;51.880;5.632;2023-06-14T04:31:28;7.82;;;3.13;;
63536;SDS011;49686;51.880;5.632;2023-06-14T04:33:57;6.13;;;2.90;;
63536;SDS011;49686;51.880;5.632;2023-06-14T04:36:23;9.82;;;2.75;;
63536;SDS011;49686;51.880;5.632;2023-06-14T04:38:50;4.50;;;2.40;;
63536;SDS011;49686;51.880;5.632;2023-06-14T04:41:17;5.13;;;2.80;;
63536;SDS011;49686;51.880;5.632;2023-06-14T04:43:44;4.07;;;2.58;;
63536;SDS011;49686;51.880;5.632;2023-06-14T04:46:11;7.57;;;3.25;;
63536;SDS011;49686;51.880;5.632;2023-06-14T04:48:39;5.70;;;2.85;;
63536;SDS011;49686;51.880;5.632;2023-06-14T04:51:07;8.60;;;2.75;;
63536;SDS011;49686;51.880;5.632;2023-06-14T04:53:34;6.32;;;2.75;;
63536;SDS011;49686;51.880;5.632;2023-06-14T04:56:01;9.57;;;3.17;;
63536;SDS011;49686;51.880;5.632;2023-06-14T04:58:28;5.13;;;3.05;;
63536;SDS011;49686;51.880;5.632;2023-06-14T05:00:55;12.95;;;2.72;;
63536;SDS011;49686;51.880;5.632;2023-06-14T05:03:22;4.93;;;2.53;;
63536;SDS011;49686;51.880;5.632;2023-06-14T05:05:49;6.10;;;2.60;;
63536;SDS011;49686;51.880;5.632;2023-06-14T05:08:17;23.45;;;3.72;;
63536;SDS011;49686;51.880;5.632;2023-06-14T05:10:44;17.90;;;4.68;;
63536;SDS011;49686;51.880;5.632;2023-06-14T05:13:11;6.30;;;2.65;;
63536;SDS011;49686;51.880;5.632;2023-06-14T05:15:38;5.63;;;2.35;;
63536;SDS011;49686;51.880;5.632;2023-06-14T05:18:04;6.85;;;2.78;;
63536;SDS011;49686;51.880;5.632;2023-06-14T05:20:31;4.95;;;2.20;;
63536;SDS011;49686;51.880;5.632;2023-06-14T05:22:58;21.83;;;3.90;;
63536;SDS011;49686;51.880;5.632;2023-06-14T05:25:26;54.88;;;6.07;;
63536;SDS011;49686;51.880;5.632;2023-06-14T05:27:53;13.25;;;2.95;;
63536;SDS011;49686;51.880;5.632;2023-06-14T05:30:20;12.27;;;2.53;;
63536;SDS011;49686;51.880;5.632;2023-06-14T05:32:47;5.88;;;2.67;;
63536;SDS011;49686;51.880;5.632;2023-06-14T05:35:14;4.93;;;2.58;;
63536;SDS011;49686;51.880;5.632;2023-06-14T05:37:41;4.78;;;2.40;;
63536;SDS011;49686;51.880;5.632;2023-06-14T05:40:08;14.82;;;2.70;;
63536;SDS011;49686;51.880;5.632;2023-06-14T05:42:37;8.85;;;2.35;;
63536;SDS011;49686;51.880;5.632;2023-06-14T05:45:04;7.63;;;2.80;;
63536;SDS011;49686;51.880;5.632;2023-06-14T05:47:32;5.57;;;2.85;;
63536;SDS011;49686;51.880;5.632;2023-06-14T05:49:59;4.60;;;2.80;;
63536;SDS011;49686;51.880;5.632;2023-06-14T05:52:26;4.63;;;2.55;;
63536;SDS011;49686;51.880;5.632;2023-06-14T05:54:52;7.53;;;2.78;;
63536;SDS011;49686;51.880;5.632;2023-06-14T05:57:19;4.35;;;2.40;;
63536;SDS011;49686;51.880;5.632;2023-06-14T05:59:47;6.43;;;2.70;;
63536;SDS011;49686;51.880;5.632;2023-06-14T06:02:14;5.07;;;2.45;;
63536;SDS011;49686;51.880;5.632;2023-06-14T06:04:41;5.15;;;3.00;;
63536;SDS011;49686;51.880;5.632;2023-06-14T06:07:08;7.38;;;2.67;;
63536;SDS011;49686;51.880;5.632;2023-06-14T06:09:35;9.45;;;2.90;;
63536;SDS011;49686;51.880;5.632;2023-06-14T06:12:02;5.60;;;2.40;;
63536;SDS011;49686;51.880;5.632;2023-06-14T06:14:31;6.85;;;2.45;;
63536;SDS011;49686;51.880;5.632;2023-06-14T06:17:00;6.25;;;2.60;;
63536;SDS011;49686;51.880;5.632;2023-06-14T06:19:27;6.78;;;2.88;;
63536;SDS011;49686;51.880;5.632;2023-06-14T06:21:53;5.78;;;2.85;;
63536;SDS011;49686;51.880;5.632;2023-06-14T06:24:20;6.43;;;2.70;;
63536;SDS011;49686;51.880;5.632;2023-06-14T06:26:47;3.75;;;2.70;;
63536;SDS011;49686;51.880;5.632;2023-06-14T06:29:14;6.05;;;2.85;;
63536;SDS011;49686;51.880;5.632;2023-06-14T06:31:40;73.10;;;7.90;;
63536;SDS011;49686;51.880;5.632;2023-06-14T06:34:09;7.03;;;3.25;;
63536;SDS011;49686;51.880;5.632;2023-06-14T06:36:36;5.70;;;2.60;;
63536;SDS011;49686;51.880;5.632;2023-06-14T06:39:02;5.97;;;2.50;;
63536;SDS011;49686;51.880;5.632;2023-06-14T06:41:29;4.60;;;2.72;;
63536;SDS011;49686;51.880;5.632;2023-06-14T06:43:56;7.65;;;2.92;;
63536;SDS011;49686;51.880;5.632;2023-06-14T06:46:23;3.65;;;2.65;;
63536;SDS011;49686;51.880;5.632;2023-06-14T06:48:49;11.70;;;3.40;;
63536;SDS011;49686;51.880;5.632;2023-06-14T06:51:18;3.90;;;2.45;;
63536;SDS011;49686;51.880;5.632;2023-06-14T06:53:48;5.80;;;3.00;;
63536;SDS011;49686;51.880;5.632;2023-06-14T06:56:18;4.75;;;2.67;;
63536;SDS011;49686;51.880;5.632;2023-06-14T06:58:45;4.65;;;2.70;;
63536;SDS011;49686;51.880;5.632;2023-06-14T07:01:12;5.35;;;2.90;;
63536;SDS011;49686;51.880;5.632;2023-06-14T07:03:39;5.88;;;2.60;;
63536;SDS011;49686;51.880;5.632;2023-06-14T07:06:05;5.00;;;2.53;;
63536;SDS011;49686;51.880;5.632;2023-06-14T07:08:34;9.55;;;2.83;;
63536;SDS011;49686;51.880;5.632;2023-06-14T07:11:01;159.27;;;14.70;;
63536;SDS011;49686;51.880;5.632;2023-06-14T07:13:27;60.05;;;7.63;;
63536;SDS011;49686;51.880;5.632;2023-06-14T07:15:54;9.27;;;2.88;;
63536;SDS011;49686;51.880;5.632;2023-06-14T07:18:23;6.97;;;2.58;;
63536;SDS011;49686;51.880;5.632;2023-06-14T07:20:50;5.97;;;2.70;;
63536;SDS011;49686;51.880;5.632;2023-06-14T07:23:17;7.85;;;2.40;;
63536;SDS011;49686;51.880;5.632;2023-06-14T07:25:45;4.32;;;2.53;;
63536;SDS011;49686;51.880;5.632;2023-06-14T07:28:12;5.88;;;2.47;;
63536;SDS011;49686;51.880;5.632;2023-06-14T07:30:39;5.25;;;2.30;;
63536;SDS011;49686;51.880;5.632;2023-06-14T07:33:05;6.95;;;2.70;;
63536;SDS011;49686;51.880;5.632;2023-06-14T07:35:32;5.72;;;2.28;;
63536;SDS011;49686;51.880;5.632;2023-06-14T07:37:59;5.05;;;2.40;;
63536;SDS011;49686;51.880;5.632;2023-06-14T07:40:26;6.60;;;2.40;;
63536;SDS011;49686;51.880;5.632;2023-06-14T07:42:54;4.10;;;2.53;;
63536;SDS011;49686;51.880;5.632;2023-06-14T07:45:21;4.93;;;2.20;;
63536;SDS011;49686;51.880;5.632;2023-06-14T07:47:48;8.43;;;2.20;;
63536;SDS011;49686;51.880;5.632;2023-06-14T07:50:15;6.90;;;2.25;;
63536;SDS011;49686;51.880;5.632;2023-06-14T07:52:43;7.25;;;2.28;;
63536;SDS011;49686;51.880;5.632;2023-06-14T07:57:38;5.22;;;2.10;;
63536;SDS011;49686;51.880;5.632;2023-06-14T08:00:06;3.33;;;1.80;;
63536;SDS011;49686;51.880;5.632;2023-06-14T08:02:34;4.43;;;1.80;;
63536;SDS011;49686;51.880;5.632;2023-06-14T08:05:01;10.90;;;2.17;;
63536;SDS011;49686;51.880;5.632;2023-06-14T08:07:28;4.38;;;2.30;;
63536;SDS011;49686;51.880;5.632;2023-06-14T08:09:55;3.05;;;1.80;;
63536;SDS011;49686;51.880;5.632;2023-06-14T08:12:21;5.13;;;1.80;;
63536;SDS011;49686;51.880;5.632;2023-06-14T08:14:48;4.05;;;1.85;;
63536;SDS011;49686;51.880;5.632;2023-06-14T08:17:35;3.15;;;1.60;;
63536;SDS011;49686;51.880;5.632;2023-06-14T08:20:02;3.05;;;1.77;;
63536;SDS011;49686;51.880;5.632;2023-06-14T08:22:30;4.63;;;1.50;;
63536;SDS011;49686;51.880;5.632;2023-06-14T08:24:56;6.55;;;2.15;;
63536;SDS011;49686;51.880;5.632;2023-06-14T08:27:23;5.38;;;1.70;;
63536;SDS011;49686;51.880;5.632;2023-06-14T08:29:53;3.15;;;1.60;;
63536;SDS011;49686;51.880;5.632;2023-06-14T08:32:20;3.95;;;1.55;;
63536;SDS011;49686;51.880;5.632;2023-06-14T08:34:48;4.78;;;1.77;;
63536;SDS011;49686;51.880;5.632;2023-06-14T08:37:30;3.03;;;1.30;;
63536;SDS011;49686;51.880;5.632;2023-06-14T08:39:57;2.03;;;1.40;;
63536;SDS011;49686;51.880;5.632;2023-06-14T08:42:24;2.65;;;1.23;;
63536;SDS011;49686;51.880;5.632;2023-06-14T08:44:57;3.45;;;1.40;;
63536;SDS011;49686;51.880;5.632;2023-06-14T08:47:24;2.53;;;1.10;;
63536;SDS011;49686;51.880;5.632;2023-06-14T08:49:54;3.00;;;1.50;;
63536;SDS011;49686;51.880;5.632;2023-06-14T08:52:23;2.35;;;1.20;;
63536;SDS011;49686;51.880;5.632;2023-06-14T08:54:52;5.50;;;1.38;;
63536;SDS011;49686;51.880;5.632;2023-06-14T08:57:19;3.85;;;1.20;;
63536;SDS011;49686;51.880;5.632;2023-06-14T08:59:47;2.47;;;1.50;;
63536;SDS011;49686;51.880;5.632;2023-06-14T09:02:14;4.00;;;1.30;;
63536;SDS011;49686;51.880;5.632;2023-06-14T09:04:41;2.92;;;1.20;;
63536;SDS011;49686;51.880;5.632;2023-06-14T09:08:20;5.22;;;1.50;;
63536;SDS011;49686;51.880;5.632;2023-06-14T09:10:47;1.98;;;1.40;;
63536;SDS011;49686;51.880;5.632;2023-06-14T09:13:14;4.47;;;1.23;;
63536;SDS011;49686;51.880;5.632;2023-06-14T09:15:41;3.25;;;1.90;;
63536;SDS011;49686;51.880;5.632;2023-06-14T09:18:08;2.35;;;1.45;;
63536;SDS011;49686;51.880;5.632;2023-06-14T09:20:35;3.75;;;1.55;;
63536;SDS011;49686;51.880;5.632;2023-06-14T09:23:01;2.92;;;1.40;;
63536;SDS011;49686;51.880;5.632;2023-06-14T09:25:32;2.08;;;1.52;;
63536;SDS011;49686;51.880;5.632;2023-06-14T09:28:08;3.10;;;1.70;;
63536;SDS011;49686;51.880;5.632;2023-06-14T09:30:36;1.83;;;1.48;;
63536;SDS011;49686;51.880;5.632;2023-06-14T09:33:03;5.50;;;1.50;;
63536;SDS011;49686;51.880;5.632;2023-06-14T09:35:30;4.20;;;1.50;;
63536;SDS011;49686;51.880;5.632;2023-06-14T09:37:57;5.32;;;1.67;;
63536;SDS011;49686;51.880;5.632;2023-06-14T09:40:27;3.28;;;1.50;;
63536;SDS011;49686;51.880;5.632;2023-06-14T09:42:55;3.17;;;1.67;;
63536;SDS011;49686;51.880;5.632;2023-06-14T09:45:24;3.28;;;1.50;;
63536;SDS011;49686;51.880;5.632;2023-06-14T09:47:52;4.60;;;1.48;;
63536;SDS011;49686;51.880;5.632;2023-06-14T09:50:32;1.67;;;1.50;;
63536;SDS011;49686;51.880;5.632;2023-06-14T09:53:00;6.75;;;1.95;;
63536;SDS011;49686;51.880;5.632;2023-06-14T09:55:30;2.17;;;1.90;;
63536;SDS011;49686;51.880;5.632;2023-06-14T09:58:02;2.80;;;1.38;;
63536;SDS011;49686;51.880;5.632;2023-06-14T10:00:33;1.75;;;1.48;;
63536;SDS011;49686;51.880;5.632;2023-06-14T10:05:37;3.90;;;1.83;;
63536;SDS011;49686;51.880;5.632;2023-06-14T10:08:08;3.47;;;1.48;;
63536;SDS011;49686;51.880;5.632;2023-06-14T10:10:38;4.05;;;1.70;;
63536;SDS011;49686;51.880;5.632;2023-06-14T10:13:10;4.75;;;1.50;;
63536;SDS011;49686;51.880;5.632;2023-06-14T10:15:38;3.75;;;1.60;;
63536;SDS011;49686;51.880;5.632;2023-06-14T10:18:18;3.08;;;1.33;;
63536;SDS011;49686;51.880;5.632;2023-06-14T10:20:51;6.70;;;1.40;;
63536;SDS011;49686;51.880;5.632;2023-06-14T10:23:26;3.67;;;1.50;;
63536;SDS011;49686;51.880;5.632;2023-06-14T10:25:57;2.40;;;1.40;;
63536;SDS011;49686;51.880;5.632;2023-06-14T10:28:26;2.53;;;1.50;;
63536;SDS011;49686;51.880;5.632;2023-06-14T10:31:02;1.52;;;1.30;;
63536;SDS011;49686;51.880;5.632;2023-06-14T10:33:30;3.53;;;1.13;;
63536;SDS011;49686;51.880;5.632;2023-06-14T10:36:10;1.83;;;1.40;;
63536;SDS011;49686;51.880;5.632;2023-06-14T10:38:56;1.90;;;1.60;;
63536;SDS011;49686;51.880;5.632;2023-06-14T10:41:25;2.97;;;1.35;;
63536;SDS011;49686;51.880;5.632;2023-06-14T10:43:54;4.00;;;1.67;;
63536;SDS011;49686;51.880;5.632;2023-06-14T10:46:55;5.97;;;1.40;;
63536;SDS011;49686;51.880;5.632;2023-06-14T10:49:36;2.67;;;1.50;;
63536;SDS011;49686;51.880;5.632;2023-06-14T10:52:05;6.93;;;1.20;;
63536;SDS011;49686;51.880;5.632;2023-06-14T10:54:33;1.75;;;1.35;;
63536;SDS011;49686;51.880;5.632;2023-06-14T10:57:00;5.15;;;1.17;;
63536;SDS011;49686;51.880;5.632;2023-06-14T10:59:28;2.55;;;1.40;;
63536;SDS011;49686;51.880;5.632;2023-06-14T11:01:57;3.22;;;1.20;;
63536;SDS011;49686;51.880;5.632;2023-06-14T11:04:48;3.28;;;1.40;;
63536;SDS011;49686;51.880;5.632;2023-06-14T11:07:21;2.35;;;1.33;;
63536;SDS011;49686;51.880;5.632;2023-06-14T11:10:05;1.88;;;1.42;;
63536;SDS011;49686;51.880;5.632;2023-06-14T11:12:44;1.40;;;1.30;;
63536;SDS011;49686;51.880;5.632;2023-06-14T11:15:15;1.58;;;1.30;;
63536;SDS011;49686;51.880;5.632;2023-06-14T11:17:49;3.17;;;1.48;;
63536;SDS011;49686;51.880;5.632;2023-06-14T11:20:17;2.85;;;1.30;;
63536;SDS011;49686;51.880;5.632;2023-06-14T11:22:48;1.65;;;1.20;;
63536;SDS011;49686;51.880;5.632;2023-06-14T11:25:15;1.70;;;1.60;;
63536;SDS011;49686;51.880;5.632;2023-06-14T11:27:43;2.80;;;1.42;;
63536;SDS011;49686;51.880;5.632;2023-06-14T11:30:10;2.57;;;1.43;;
63536;SDS011;49686;51.880;5.632;2023-06-14T11:32:42;5.07;;;1.38;;
63536;SDS011;49686;51.880;5.632;2023-06-14T11:35:12;3.25;;;1.85;;
63536;SDS011;49686;51.880;5.632;2023-06-14T11:37:39;1.48;;;1.38;;
63536;SDS011;49686;51.880;5.632;2023-06-14T11:40:07;4.18;;;1.50;;
63536;SDS011;49686;51.880;5.632;2023-06-14T11:45:02;1.40;;;1.30;;
63536;SDS011;49686;51.880;5.632;2023-06-14T11:47:43;1.63;;;1.30;;
63536;SDS011;49686;51.880;5.632;2023-06-14T11:50:10;3.05;;;1.50;;
63536;SDS011;49686;51.880;5.632;2023-06-14T11:52:37;2.05;;;1.30;;
63536;SDS011;49686;51.880;5.632;2023-06-14T11:55:08;5.00;;;1.65;;
63536;SDS011;49686;51.880;5.632;2023-06-14T11:57:35;3.38;;;1.60;;
63536;SDS011;49686;51.880;5.632;2023-06-14T12:00:03;4.18;;;1.48;;
63536;SDS011;49686;51.880;5.632;2023-06-14T12:02:31;4.63;;;1.33;;
63536;SDS011;49686;51.880;5.632;2023-06-14T12:05:03;5.97;;;1.50;;
63536;SDS011;49686;51.880;5.632;2023-06-14T12:07:44;4.53;;;2.03;;
63536;SDS011;49686;51.880;5.632;2023-06-14T12:10:11;3.60;;;1.70;;
63536;SDS011;49686;51.880;5.632;2023-06-14T12:12:40;4.50;;;1.50;;
63536;SDS011;49686;51.880;5.632;2023-06-14T12:15:07;2.83;;;1.65;;
63536;SDS011;49686;51.880;5.632;2023-06-14T12:17:37;3.70;;;1.33;;
63536;SDS011;49686;51.880;5.632;2023-06-14T12:20:12;2.00;;;1.80;;
63536;SDS011;49686;51.880;5.632;2023-06-14T12:22:46;1.95;;;1.40;;
63536;SDS011;49686;51.880;5.632;2023-06-14T12:25:23;2.90;;;1.67;;
63536;SDS011;49686;51.880;5.632;2023-06-14T12:27:52;3.83;;;1.30;;
63536;SDS011;49686;51.880;5.632;2023-06-14T12:30:28;1.95;;;1.20;;
63536;SDS011;49686;51.880;5.632;2023-06-14T12:32:55;13.10;;;1.73;;
63536;SDS011;49686;51.880;5.632;2023-06-14T12:35:23;3.40;;;1.67;;
63536;SDS011;49686;51.880;5.632;2023-06-14T12:37:50;4.57;;;1.20;;
63536;SDS011;49686;51.880;5.632;2023-06-14T12:40:21;1.88;;;1.27;;
63536;SDS011;49686;51.880;5.632;2023-06-14T12:42:48;3.92;;;1.30;;
63536;SDS011;49686;51.880;5.632;2023-06-14T12:45:17;3.22;;;1.48;;
63536;SDS011;49686;51.880;5.632;2023-06-14T12:47:44;2.97;;;1.50;;
63536;SDS011;49686;51.880;5.632;2023-06-14T12:50:11;4.22;;;1.58;;
63536;SDS011;49686;51.880;5.632;2023-06-14T12:52:41;2.15;;;1.42;;
63536;SDS011;49686;51.880;5.632;2023-06-14T12:55:07;2.53;;;1.67;;
63536;SDS011;49686;51.880;5.632;2023-06-14T12:57:34;1.42;;;1.30;;
63536;SDS011;49686;51.880;5.632;2023-06-14T13:00:05;4.47;;;1.45;;
63536;SDS011;49686;51.880;5.632;2023-06-14T13:02:32;2.97;;;1.60;;
63536;SDS011;49686;51.880;5.632;2023-06-14T13:05:00;5.63;;;1.50;;
63536;SDS011;49686;51.880;5.632;2023-06-14T13:07:27;2.75;;;1.30;;
63536;SDS011;49686;51.880;5.632;2023-06-14T13:09:55;3.25;;;1.73;;
63536;SDS011;49686;51.880;5.632;2023-06-14T13:12:22;1.50;;;1.20;;
63536;SDS011;49686;51.880;5.632;2023-06-14T13:14:49;1.85;;;1.30;;
63536;SDS011;49686;51.880;5.632;2023-06-14T13:17:16;1.92;;;1.52;;
63536;SDS011;49686;51.880;5.632;2023-06-14T13:19:42;3.25;;;1.77;;
63536;SDS011;49686;51.880;5.632;2023-06-14T13:22:09;2.97;;;1.40;;
63536;SDS011;49686;51.880;5.632;2023-06-14T13:24:36;1.88;;;1.77;;
63536;SDS011;49686;51.880;5.632;2023-06-14T13:27:05;1.85;;;1.45;;
63536;SDS011;49686;51.880;5.632;2023-06-14T13:29:32;3.42;;;1.40;;
63536;SDS011;49686;51.880;5.632;2023-06-14T13:32:01;4.97;;;1.35;;
63536;SDS011;49686;51.880;5.632;2023-06-14T13:34:28;3.78;;;1.38;;
63536;SDS011;49686;51.880;5.632;2023-06-14T13:37:01;6.10;;;1.48;;
63536;SDS011;49686;51.880;5.632;2023-06-14T13:39:28;2.35;;;1.20;;
63536;SDS011;49686;51.880;5.632;2023-06-14T13:41:55;2.35;;;1.30;;
63536;SDS011;49686;51.880;5.632;2023-06-14T13:44:25;5.47;;;1.20;;
63536;SDS011;49686;51.880;5.632;2023-06-14T13:46:55;4.30;;;1.25;;
63536;SDS011;49686;51.880;5.632;2023-06-14T13:49:22;7.20;;;1.30;;
63536;SDS011;49686;51.880;5.632;2023-06-14T13:51:48;6.63;;;1.33;;
63536;SDS011;49686;51.880;5.632;2023-06-14T13:54:18;2.53;;;1.40;;
63536;SDS011;49686;51.880;5.632;2023-06-14T13:56:48;2.35;;;1.00;;
63536;SDS011;49686;51.880;5.632;2023-06-14T13:59:15;1.20;;;1.10;;
63536;SDS011;49686;51.880;5.632;2023-06-14T14:01:49;3.03;;;1.15;;
63536;SDS011;49686;51.880;5.632;2023-06-14T14:04:17;3.90;;;1.17;;
63536;SDS011;49686;51.880;5.632;2023-06-14T14:06:44;2.00;;;1.00;;
63536;SDS011;49686;51.880;5.632;2023-06-14T14:09:13;3.78;;;1.20;;
63536;SDS011;49686;51.880;5.632;2023-06-14T14:11:40;4.05;;;1.30;;
63536;SDS011;49686;51.880;5.632;2023-06-14T14:14:10;2.00;;;1.20;;
63536;SDS011;49686;51.880;5.632;2023-06-14T14:16:37;1.90;;;1.00;;
63536;SDS011;49686;51.880;5.632;2023-06-14T14:19:05;2.92;;;1.00;;
63536;SDS011;49686;51.880;5.632;2023-06-14T14:23:59;3.17;;;1.10;;
63536;SDS011;49686;51.880;5.632;2023-06-14T14:26:28;1.05;;;1.00;;
63536;SDS011;49686;51.880;5.632;2023-06-14T14:28:55;1.67;;;1.00;;
63536;SDS011;49686;51.880;5.632;2023-06-14T14:31:22;2.25;;;1.10;;
63536;SDS011;49686;51.880;5.632;2023-06-14T14:33:54;2.28;;;1.00;;
63536;SDS011;49686;51.880;5.632;2023-06-14T14:36:22;2.05;;;1.15;;
63536;SDS011;49686;51.880;5.632;2023-06-14T14:38:49;1.98;;;1.00;;
63536;SDS011;49686;51.880;5.632;2023-06-14T14:41:16;2.10;;;0.98;;
63536;SDS011;49686;51.880;5.632;2023-06-14T14:43:43;2.33;;;1.00;;
63536;SDS011;49686;51.880;5.632;2023-06-14T14:46:10;1.70;;;1.10;;
63536;SDS011;49686;51.880;5.632;2023-06-14T14:48:37;1.45;;;1.08;;
63536;SDS011;49686;51.880;5.632;2023-06-14T14:51:04;2.42;;;1.00;;
63536;SDS011;49686;51.880;5.632;2023-06-14T14:53:32;2.65;;;0.90;;
63536;SDS011;49686;51.880;5.632;2023-06-14T14:55:59;9.07;;;1.42;;
63536;SDS011;49686;51.880;5.632;2023-06-14T14:58:29;2.55;;;1.27;;
63536;SDS011;49686;51.880;5.632;2023-06-14T15:00:56;4.38;;;1.42;;
63536;SDS011;49686;51.880;5.632;2023-06-14T15:04:30;11.70;;;1.30;;
63536;SDS011;49686;51.880;5.632;2023-06-14T15:09:00;2.40;;;1.00;;
63536;SDS011;49686;51.880;5.632;2023-06-14T15:11:27;3.88;;;1.10;;